Time;durP1;ratioP1;P1;durP2;ratioP2;P2;SDS_P1;SDS_P2;PMS_P1;PMS_P2;Temp;Humidity;BMP_temperature;BMP_pressure;BME280_temperature;BME280_humidity;BME280_pressure;Samples;Min_cycle;Max_cycle;Signal;HPM_P1;HPM_P2
2021/01/28 00:01:32;;;;;;;5.10;2.33;;;;;;;;;;5111009;28;20028;-67
2021/01/28 00:03:59;;;;;;;1.90;1.67;;;;;;;;;;5110759;28;20027;-67
2021/01/28 00:06:25;;;;;;;2.75;1.70;;;;;;;;;;5129048;27;20046;-67
2021/01/28 00:08:51;;;;;;;2.00;1.90;;;;;;;;;;5130722;27;20026;-67
2021/01/28 00:11:17;;;;;;;1.92;1.70;;;;;;;;;;5115257;28;20047;-67
2021/01/28 00:13:43;;;;;;;1.98;1.83;;;;;;;;;;5116546;28;20034;-67
2021/01/28 00:16:09;;;;;;;1.80;1.70;;;;;;;;;;5116781;28;20023;-67
2021/01/28 00:18:35;;;;;;;2.45;1.73;;;;;;;;;;5117591;28;20031;-67
2021/01/28 00:21:01;;;;;;;2.13;1.55;;;;;;;;;;5116490;28;20027;-67
2021/01/28 00:23:27;;;;;;;2.05;1.90;;;;;;;;;;5117459;28;20019;-67
2021/01/28 00:25:53;;;;;;;2.35;1.75;;;;;;;;;;5116662;28;20034;-67
2021/01/28 00:28:20;;;;;;;1.35;1.30;;;;;;;;;;5116503;28;20532;-67
2021/01/28 00:30:48;;;;;;;1.67;1.45;;;;;;;;;;5117166;28;20036;-67
2021/01/28 00:33:19;;;;;;;2.17;1.98;;;;;;;;;;5116475;28;20023;-67
2021/01/28 00:35:46;;;;;;;1.58;1.48;;;;;;;;;;5116626;28;20050;-67
2021/01/28 00:38:14;;;;;;;1.50;1.25;;;;;;;;;;5116101;28;20027;-67
2021/01/28 00:40:40;;;;;;;2.30;2.10;;;;;;;;;;5117325;28;20498;-67
2021/01/28 00:43:06;;;;;;;2.78;2.40;;;;;;;;;;5116006;28;20118;-67
2021/01/28 00:45:33;;;;;;;1.75;1.63;;;;;;;;;;5117235;28;20031;-67
2021/01/28 00:47:59;;;;;;;5.03;1.33;;;;;;;;;;5116571;28;20023;-67
2021/01/28 00:50:27;;;;;;;1.58;1.50;;;;;;;;;;5116709;28;20177;-67
2021/01/28 00:52:53;;;;;;;1.75;1.55;;;;;;;;;;5121479;27;20076;-67
2021/01/28 00:55:19;;;;;;;2.67;1.60;;;;;;;;;;5136625;27;20027;-67
2021/01/28 00:57:45;;;;;;;1.67;1.58;;;;;;;;;;5137201;27;20027;-67
2021/01/28 01:00:12;;;;;;;2.17;1.38;;;;;;;;;;5136260;27;20019;-66
2021/01/28 01:02:38;;;;;;;0.90;0.90;;;;;;;;;;5137776;27;20034;-67
2021/01/28 01:05:04;;;;;;;1.30;0.80;;;;;;;;;;5136803;27;20092;-67
2021/01/28 01:07:30;;;;;;;1.52;0.90;;;;;;;;;;5137188;27;20023;-67
2021/01/28 01:09:56;;;;;;;1.52;1.30;;;;;;;;;;5137123;27;20091;-67
2021/01/28 01:12:22;;;;;;;1.75;1.30;;;;;;;;;;5137286;27;20027;-67
2021/01/28 01:14:48;;;;;;;1.73;1.63;;;;;;;;;;5137970;27;20136;-67
2021/01/28 01:17:14;;;;;;;1.85;1.05;;;;;;;;;;5136930;27;20023;-67
2021/01/28 01:19:40;;;;;;;4.03;1.45;;;;;;;;;;5137365;27;20149;-66
2021/01/28 01:22:06;;;;;;;1.60;1.00;;;;;;;;;;5137174;27;20031;-67
2021/01/28 01:24:32;;;;;;;2.30;1.23;;;;;;;;;;5134902;27;20041;-67
2021/01/28 01:26:58;;;;;;;1.27;1.17;;;;;;;;;;5133872;27;20031;-67
2021/01/28 01:29:24;;;;;;;2.47;1.05;;;;;;;;;;5133724;27;20031;-66
2021/01/28 01:31:50;;;;;;;1.20;0.90;;;;;;;;;;5134304;27;20460;-67
2021/01/28 01:34:16;;;;;;;1.55;1.45;;;;;;;;;;5133712;27;20063;-67
2021/01/28 01:36:43;;;;;;;1.38;0.90;;;;;;;;;;5133739;27;20373;-67
2021/01/28 01:39:09;;;;;;;1.75;1.35;;;;;;;;;;5112372;27;20063;-67
2021/01/28 01:41:36;;;;;;;1.05;0.95;;;;;;;;;;5113487;28;20020;-67
2021/01/28 01:44:03;;;;;;;1.33;1.23;;;;;;;;;;5112941;28;20036;-67
2021/01/28 01:46:30;;;;;;;1.05;1.05;;;;;;;;;;5113500;28;20032;-67
2021/01/28 01:49:01;;;;;;;1.42;1.15;;;;;;;;;;5112877;28;20492;-67
2021/01/28 01:51:38;;;;;;;2.35;1.48;;;;;;;;;;5113262;28;20039;-67
2021/01/28 01:54:07;;;;;;;2.00;1.45;;;;;;;;;;5112633;28;20028;-67
2021/01/28 01:56:35;;;;;;;2.15;1.15;;;;;;;;;;5113183;28;20030;-67
2021/01/28 01:59:07;;;;;;;1.77;1.15;;;;;;;;;;5112337;28;20032;-67
2021/01/28 02:01:35;;;;;;;2.25;1.08;;;;;;;;;;5112950;28;20458;-67
2021/01/28 02:04:01;;;;;;;2.97;1.67;;;;;;;;;;5112553;28;20156;-67
2021/01/28 02:06:41;;;;;;;2.25;1.00;;;;;;;;;;5131113;27;20050;-67
2021/01/28 02:09:09;;;;;;;1.25;1.10;;;;;;;;;;5132216;27;20033;-67
2021/01/28 02:11:36;;;;;;;1.90;1.33;;;;;;;;;;5132601;27;20141;-67
2021/01/28 02:14:04;;;;;;;0.70;0.68;;;;;;;;;;5131588;27;20027;-66
2021/01/28 02:16:32;;;;;;;1.55;1.30;;;;;;;;;;5133157;27;20382;-67
2021/01/28 02:18:59;;;;;;;0.60;0.60;;;;;;;;;;5132610;27;20104;-67
2021/01/28 02:21:31;;;;;;;1.67;1.42;;;;;;;;;;5132782;27;20035;-67
2021/01/28 02:24:12;;;;;;;2.05;1.00;;;;;;;;;;5132736;27;20055;-67
2021/01/28 02:26:41;;;;;;;0.70;0.70;;;;;;;;;;5132413;27;20027;-67
2021/01/28 02:29:08;;;;;;;0.95;0.95;;;;;;;;;;5131881;27;20554;-67
2021/01/28 02:31:34;;;;;;;1.42;0.80;;;;;;;;;;5133179;27;20481;-67
2021/01/28 02:34:01;;;;;;;1.20;0.85;;;;;;;;;;5132544;27;20436;-67
2021/01/28 02:36:31;;;;;;;1.50;1.05;;;;;;;;;;5130631;27;20029;-67
2021/01/28 02:38:57;;;;;;;1.40;1.30;;;;;;;;;;5132129;27;20540;-67
2021/01/28 02:41:23;;;;;;;1.20;0.60;;;;;;;;;;5131662;27;20121;-67
2021/01/28 02:43:50;;;;;;;1.58;1.33;;;;;;;;;;5132870;27;20046;-67
2021/01/28 02:46:16;;;;;;;1.33;1.20;;;;;;;;;;5131464;27;20084;-66
2021/01/28 02:48:43;;;;;;;0.95;0.93;;;;;;;;;;5132574;27;20034;-67
2021/01/28 02:51:09;;;;;;;0.80;0.80;;;;;;;;;;5131473;27;20038;-67
2021/01/28 02:53:52;;;;;;;2.65;0.75;;;;;;;;;;5131876;27;20019;-67
2021/01/28 02:56:19;;;;;;;1.50;0.70;;;;;;;;;;5131435;27;20380;-67
2021/01/28 02:58:45;;;;;;;0.82;0.73;;;;;;;;;;5132176;27;20023;-67
2021/01/28 03:01:11;;;;;;;1.67;0.93;;;;;;;;;;5130695;27;20031;-67
2021/01/28 03:03:37;;;;;;;2.15;1.02;;;;;;;;;;5132363;27;20023;-67
2021/01/28 03:06:05;;;;;;;1.00;0.80;;;;;;;;;;5131107;27;20047;-67
2021/01/28 03:08:31;;;;;;;1.00;0.90;;;;;;;;;;5130666;27;20027;-67
2021/01/28 03:10:57;;;;;;;1.23;0.70;;;;;;;;;;5131781;27;20095;-67
2021/01/28 03:13:24;;;;;;;0.82;0.80;;;;;;;;;;5131138;27;20024;-67
2021/01/28 03:15:50;;;;;;;1.00;0.65;;;;;;;;;;5132447;27;20089;-67
2021/01/28 03:18:17;;;;;;;1.08;0.50;;;;;;;;;;5131038;27;20642;-67
2021/01/28 03:20:43;;;;;;;1.33;0.95;;;;;;;;;;5132152;27;20477;-67
2021/01/28 03:23:10;;;;;;;0.57;0.50;;;;;;;;;;5130514;27;20066;-67
2021/01/28 03:25:36;;;;;;;0.50;0.38;;;;;;;;;;5132019;27;20035;-67
2021/01/28 03:28:03;;;;;;;1.02;0.70;;;;;;;;;;5130009;27;20034;-67
2021/01/28 03:30:34;;;;;;;0.50;0.50;;;;;;;;;;5131681;27;20043;-67
2021/01/28 03:33:00;;;;;;;0.73;0.65;;;;;;;;;;5131037;27;20027;-67
2021/01/28 03:35:27;;;;;;;0.68;0.68;;;;;;;;;;5131822;27;20043;-67
2021/01/28 03:37:53;;;;;;;1.17;0.95;;;;;;;;;;5130925;27;20039;-67
2021/01/28 03:40:21;;;;;;;0.60;0.52;;;;;;;;;;5130772;27;20118;-67
2021/01/28 03:42:47;;;;;;;0.80;0.60;;;;;;;;;;5131698;27;20038;-67
2021/01/28 03:45:13;;;;;;;1.15;0.65;;;;;;;;;;5131268;27;20027;-67
2021/01/28 03:47:40;;;;;;;3.03;0.70;;;;;;;;;;5131316;27;20064;-67
2021/01/28 03:50:07;;;;;;;0.93;0.70;;;;;;;;;;5129788;27;20020;-67
2021/01/28 03:52:34;;;;;;;0.93;0.75;;;;;;;;;;5131721;27;20386;-67
2021/01/28 03:55:01;;;;;;;1.35;1.15;;;;;;;;;;5131100;27;20462;-67
2021/01/28 03:57:27;;;;;;;0.30;0.30;;;;;;;;;;5130874;27;20027;-67
2021/01/28 03:59:53;;;;;;;1.33;0.60;;;;;;;;;;5130563;27;20043;-67
2021/01/28 04:02:19;;;;;;;0.70;0.50;;;;;;;;;;5130569;27;20031;-67
2021/01/28 04:04:45;;;;;;;0.52;0.52;;;;;;;;;;5131513;27;20107;-67
2021/01/28 04:07:11;;;;;;;0.47;0.47;;;;;;;;;;5130492;27;20473;-66
2021/01/28 04:09:37;;;;;;;0.98;0.47;;;;;;;;;;5130273;28;20557;-67
2021/01/28 04:12:04;;;;;;;0.50;0.50;;;;;;;;;;5130436;28;20092;-67
2021/01/28 04:14:30;;;;;;;0.30;0.30;;;;;;;;;;5131286;28;20075;-66
2021/01/28 04:16:56;;;;;;;1.65;0.30;;;;;;;;;;5131510;28;20027;-67
2021/01/28 04:19:22;;;;;;;0.20;0.20;;;;;;;;;;5130730;28;20042;-67
2021/01/28 04:21:48;;;;;;;0.40;0.40;;;;;;;;;;5131187;28;20023;-67
2021/01/28 04:24:14;;;;;;;0.57;0.43;;;;;;;;;;5129856;28;20035;-67
2021/01/28 04:26:40;;;;;;;0.73;0.40;;;;;;;;;;5131379;28;20106;-67
2021/01/28 04:29:06;;;;;;;2.17;0.50;;;;;;;;;;5130176;28;20402;-67
2021/01/28 04:31:33;;;;;;;0.32;0.32;;;;;;;;;;5130450;28;20537;-67
2021/01/28 04:33:59;;;;;;;0.40;0.40;;;;;;;;;;5130332;28;20034;-67
2021/01/28 04:36:26;;;;;;;0.57;0.30;;;;;;;;;;5130158;28;20114;-67
2021/01/28 04:38:52;;;;;;;3.10;1.25;;;;;;;;;;5130739;28;20030;-67
2021/01/28 04:41:20;;;;;;;0.75;0.45;;;;;;;;;;5129696;28;20106;-67
2021/01/28 04:43:50;;;;;;;0.50;0.50;;;;;;;;;;5130697;28;20031;-66
2021/01/28 04:46:26;;;;;;;0.30;0.30;;;;;;;;;;5130435;28;20031;-67
2021/01/28 04:48:53;;;;;;;2.28;0.35;;;;;;;;;;5130011;28;20069;-66
2021/01/28 04:51:19;;;;;;;0.28;0.28;;;;;;;;;;5130435;28;20527;-67
2021/01/28 04:54:04;;;;;;;0.40;0.40;;;;;;;;;;5131060;28;20019;-66
2021/01/28 04:56:32;;;;;;;0.68;0.38;;;;;;;;;;5131004;28;20055;-67
2021/01/28 04:59:09;;;;;;;0.35;0.35;;;;;;;;;;5131191;27;20045;-67
2021/01/28 05:01:35;;;;;;;0.30;0.30;;;;;;;;;;5134053;27;20041;-67
2021/01/28 05:04:03;;;;;;;0.50;0.50;;;;;;;;;;5134023;27;20101;-67
2021/01/28 05:06:29;;;;;;;0.20;0.20;;;;;;;;;;5133309;27;20557;-67
2021/01/28 05:08:55;;;;;;;0.80;0.80;;;;;;;;;;5134214;27;20027;-66
2021/01/28 05:11:26;;;;;;;0.20;0.20;;;;;;;;;;5134000;27;20039;-66
2021/01/28 05:13:52;;;;;;;0.30;0.30;;;;;;;;;;5133754;27;20586;-67
2021/01/28 05:16:21;;;;;;;0.50;0.50;;;;;;;;;;5132815;27;20058;-67
2021/01/28 05:18:58;;;;;;;0.28;0.28;;;;;;;;;;5134322;27;20034;-67
2021/01/28 05:21:25;;;;;;;0.20;0.20;;;;;;;;;;5134263;27;20027;-67
2021/01/28 05:23:59;;;;;;;0.20;0.20;;;;;;;;;;5133362;27;20027;-67
2021/01/28 05:26:36;;;;;;;0.30;0.30;;;;;;;;;;5133933;27;20063;-67
2021/01/28 05:29:14;;;;;;;0.25;0.25;;;;;;;;;;5133620;27;20080;-67
2021/01/28 05:31:40;;;;;;;0.10;0.10;;;;;;;;;;5134096;27;20065;-67
2021/01/28 05:34:11;;;;;;;0.43;0.40;;;;;;;;;;5132442;27;20490;-67
2021/01/28 05:36:42;;;;;;;0.20;0.20;;;;;;;;;;5133900;27;20634;-67
2021/01/28 05:39:31;;;;;;;0.20;0.20;;;;;;;;;;5113645;27;20023;-67
2021/01/28 05:42:06;;;;;;;0.22;0.15;;;;;;;;;;5102355;28;20032;-67
2021/01/28 05:44:33;;;;;;;0.30;0.30;;;;;;;;;;5112198;28;20116;-67
2021/01/28 05:47:04;;;;;;;0.40;0.40;;;;;;;;;;5112885;28;20024;-67
2021/01/28 05:49:31;;;;;;;2.63;0.20;;;;;;;;;;5112191;28;20023;-67
2021/01/28 05:51:57;;;;;;;0.20;0.15;;;;;;;;;;5113046;28;20035;-67
2021/01/28 05:54:27;;;;;;;0.30;0.30;;;;;;;;;;5112531;28;20024;-67
2021/01/28 05:56:53;;;;;;;0.30;0.30;;;;;;;;;;5113249;28;20028;-67
2021/01/28 05:59:26;;;;;;;0.43;0.20;;;;;;;;;;5112620;28;20055;-66
2021/01/28 06:02:07;;;;;;;0.30;0.30;;;;;;;;;;5112456;28;20020;-66
2021/01/28 06:04:39;;;;;;;0.20;0.20;;;;;;;;;;5114877;27;20074;-67
2021/01/28 06:07:08;;;;;;;2.38;0.40;;;;;;;;;;5132482;27;20027;-67
2021/01/28 06:10:04;;;;;;;0.40;0.30;;;;;;;;;;5132308;27;20451;-67
2021/01/28 06:12:39;;;;;;;0.40;0.40;;;;;;;;;;5038130;27;20088;-67
2021/01/28 06:15:23;;;;;;;0.80;0.80;;;;;;;;;;5132821;27;20091;-67
2021/01/28 06:17:58;;;;;;;0.40;0.30;;;;;;;;;;5133124;27;20375;-67
2021/01/28 06:20:30;;;;;;;0.20;0.20;;;;;;;;;;5132367;27;20450;-67
2021/01/28 06:23:14;;;;;;;0.70;0.17;;;;;;;;;;5133162;27;20023;-67
2021/01/28 06:25:55;;;;;;;0.55;0.40;;;;;;;;;;5132910;27;20641;-67
2021/01/28 06:28:27;;;;;;;0.28;0.28;;;;;;;;;;5132803;27;20031;-67
2021/01/28 06:31:02;;;;;;;0.43;0.40;;;;;;;;;;5132265;27;20370;-67
2021/01/28 06:33:37;;;;;;;0.25;0.20;;;;;;;;;;5133109;27;20028;-67
2021/01/28 06:36:13;;;;;;;0.65;0.30;;;;;;;;;;5132074;27;20026;-66
2021/01/28 06:38:58;;;;;;;0.30;0.30;;;;;;;;;;5132211;27;20031;-67
2021/01/28 06:41:26;;;;;;;0.60;0.43;;;;;;;;;;5132170;27;20030;-67
2021/01/28 06:43:55;;;;;;;0.30;0.20;;;;;;;;;;5124850;27;20057;-67
2021/01/28 06:46:27;;;;;;;0.65;0.65;;;;;;;;;;5132322;27;20035;-67
2021/01/28 06:48:58;;;;;;;0.88;0.43;;;;;;;;;;5132309;27;20362;-67
2021/01/28 06:51:24;;;;;;;0.35;0.35;;;;;;;;;;5132124;27;20134;-66
2021/01/28 06:53:58;;;;;;;1.02;0.85;;;;;;;;;;5131123;27;20488;-67
2021/01/28 06:56:43;;;;;;;0.40;0.40;;;;;;;;;;5131976;27;20030;-67
2021/01/28 06:59:15;;;;;;;0.50;0.50;;;;;;;;;;5130109;27;20042;-66
2021/01/28 07:01:45;;;;;;;0.75;0.40;;;;;;;;;;5113705;27;20543;-67
2021/01/28 07:04:31;;;;;;;0.90;0.55;;;;;;;;;;5114407;27;21410;-68
2021/01/28 07:07:02;;;;;;;0.32;0.30;;;;;;;;;;5085281;28;20058;-66
2021/01/28 07:09:34;;;;;;;0.55;0.55;;;;;;;;;;5097874;28;20028;-66
2021/01/28 07:12:02;;;;;;;2.00;0.70;;;;;;;;;;5109640;28;20482;-66
2021/01/28 07:14:28;;;;;;;1.15;0.80;;;;;;;;;;5108933;28;20023;-66
2021/01/28 07:17:01;;;;;;;1.25;0.88;;;;;;;;;;5110145;28;20031;-66
2021/01/28 07:19:31;;;;;;;1.45;0.80;;;;;;;;;;5107891;28;20363;-66
2021/01/28 07:21:57;;;;;;;0.73;0.70;;;;;;;;;;5106082;28;20028;-66
2021/01/28 07:24:29;;;;;;;1.13;0.60;;;;;;;;;;5107955;28;20080;-67
2021/01/28 07:27:09;;;;;;;0.80;0.80;;;;;;;;;;5105583;28;20035;-67
2021/01/28 07:29:40;;;;;;;0.88;0.80;;;;;;;;;;5104404;28;20505;-66
2021/01/28 07:32:07;;;;;;;1.98;1.02;;;;;;;;;;5104405;28;20567;-67
2021/01/28 07:34:34;;;;;;;1.52;1.40;;;;;;;;;;5107403;28;20481;-67
2021/01/28 07:37:18;;;;;;;0.70;0.70;;;;;;;;;;5108272;28;20532;-67
2021/01/28 07:39:45;;;;;;;1.35;0.93;;;;;;;;;;5109811;28;20033;-67
2021/01/28 07:42:17;;;;;;;1.70;1.00;;;;;;;;;;5104215;28;20020;-67
2021/01/28 07:44:45;;;;;;;1.13;1.00;;;;;;;;;;5101731;28;20032;-67
2021/01/28 07:47:15;;;;;;;1.58;0.98;;;;;;;;;;5096443;27;20016;-67
2021/01/28 07:50:01;;;;;;;2.22;0.93;;;;;;;;;;5105235;28;20076;-67
2021/01/28 07:52:34;;;;;;;0.80;0.80;;;;;;;;;;5105883;27;20100;-67
2021/01/28 07:55:02;;;;;;;2.60;2.17;;;;;;;;;;5089338;28;20040;-66
2021/01/28 07:57:28;;;;;;;3.63;1.90;;;;;;;;;;5092911;28;20044;-67
2021/01/28 07:59:59;;;;;;;2.05;1.90;;;;;;;;;;5094679;28;20020;-66
2021/01/28 08:02:29;;;;;;;4.57;2.33;;;;;;;;;;5092950;28;20538;-66
2021/01/28 08:05:04;;;;;;;2.58;1.70;;;;;;;;;;5094103;28;20059;-66
2021/01/28 08:07:48;;;;;;;5.70;2.42;;;;;;;;;;5088365;28;20172;-66
2021/01/28 08:10:14;;;;;;;;;;;;;;;;;;5091058;28;20035;-65
2021/01/28 08:12:50;;;;;;;3.45;1.95;;;;;;;;;;5094299;28;20270;-67
2021/01/28 08:15:18;;;;;;;3.55;2.28;;;;;;;;;;5093861;28;20856;-67
2021/01/28 08:17:45;;;;;;;1.92;1.52;;;;;;;;;;5094023;28;20023;-66
2021/01/28 08:20:22;;;;;;;5.95;1.30;;;;;;;;;;5093985;28;20028;-67
2021/01/28 08:23:21;;;;;;;1.80;1.27;;;;;;;;;;5094002;28;20028;-68
2021/01/28 08:25:52;;;;;;;3.38;2.10;;;;;;;;;;5042587;28;20063;-66
2021/01/28 08:28:18;;;;;;;13.27;10.38;;;;;;;;;;5097212;28;20024;-67
2021/01/28 08:30:45;;;;;;;5.85;3.88;;;;;;;;;;5098153;28;20044;-67
2021/01/28 08:33:13;;;;;;;3.28;2.97;;;;;;;;;;5098674;28;20115;-68
2021/01/28 08:35:44;;;;;;;4.57;2.90;;;;;;;;;;5103343;28;20072;-67
2021/01/28 08:38:19;;;;;;;5.43;3.35;;;;;;;;;;5104232;27;20023;-69
2021/01/28 08:40:55;;;;;;;4.78;3.50;;;;;;;;;;5103178;27;20051;-67
2021/01/28 08:43:21;;;;;;;4.05;3.30;;;;;;;;;;5095037;28;20042;-67
2021/01/28 08:45:47;;;;;;;6.35;3.53;;;;;;;;;;5099209;28;20440;-67
2021/01/28 08:48:15;;;;;;;2.80;2.60;;;;;;;;;;5096299;28;20027;-68
2021/01/28 08:50:44;;;;;;;4.07;3.17;;;;;;;;;;5100483;28;20137;-67
2021/01/28 08:53:20;;;;;;;3.95;2.88;;;;;;;;;;5096686;28;20047;-67
2021/01/28 08:55:46;;;;;;;3.63;2.40;;;;;;;;;;5097245;28;20450;-66
2021/01/28 08:58:21;;;;;;;3.40;2.95;;;;;;;;;;5098591;28;20435;-67
2021/01/28 09:00:51;;;;;;;3.10;2.85;;;;;;;;;;5094880;28;20073;-67
2021/01/28 09:03:23;;;;;;;3.95;3.00;;;;;;;;;;5093525;27;20093;-68
2021/01/28 09:05:51;;;;;;;4.25;2.80;;;;;;;;;;5093840;28;20051;-67
2021/01/28 09:08:35;;;;;;;3.58;3.25;;;;;;;;;;5099674;28;20040;-68
2021/01/28 09:11:22;;;;;;;3.78;2.65;;;;;;;;;;5103852;28;20418;-68
2021/01/28 09:14:06;;;;;;;3.42;2.88;;;;;;;;;;5106469;28;20027;-67
2021/01/28 09:16:33;;;;;;;3.00;2.75;;;;;;;;;;5111649;28;20553;-67
2021/01/28 09:19:28;;;;;;;4.32;2.65;;;;;;;;;;5111161;28;20078;-67
2021/01/28 09:21:57;;;;;;;5.68;3.35;;;;;;;;;;5080650;28;20109;-71
2021/01/28 09:24:34;;;;;;;4.35;3.33;;;;;;;;;;5105231;28;20039;-67
2021/01/28 09:27:15;;;;;;;4.70;3.47;;;;;;;;;;5103439;28;20031;-67
2021/01/28 09:29:42;;;;;;;4.22;2.95;;;;;;;;;;5103459;28;20383;-67
2021/01/28 09:32:23;;;;;;;6.07;4.53;;;;;;;;;;5102077;28;20132;-67
2021/01/28 09:35:12;;;;;;;5.38;4.38;;;;;;;;;;5103388;28;20063;-67
2021/01/28 09:37:39;;;;;;;4.32;3.38;;;;;;;;;;5101727;28;20024;-67
2021/01/28 09:40:34;;;;;;;6.82;4.70;;;;;;;;;;5101358;28;20438;-67
2021/01/28 09:43:17;;;;;;;9.18;5.25;;;;;;;;;;5080623;28;20070;-69
2021/01/28 09:45:43;;;;;;;3.67;2.70;;;;;;;;;;5105846;28;20153;-68
2021/01/28 09:48:09;;;;;;;5.15;4.28;;;;;;;;;;5109491;28;20024;-67
2021/01/28 09:50:35;;;;;;;4.97;3.72;;;;;;;;;;5110525;28;20058;-67
2021/01/28 09:53:01;;;;;;;5.35;4.03;;;;;;;;;;5111018;27;20019;-68
2021/01/28 09:55:33;;;;;;;4.45;4.05;;;;;;;;;;5111219;28;20035;-66
2021/01/28 09:57:59;;;;;;;5.60;3.53;;;;;;;;;;5111769;27;20374;-67
2021/01/28 10:00:26;;;;;;;3.83;3.35;;;;;;;;;;5089399;28;20030;-67
2021/01/28 10:02:58;;;;;;;4.93;3.63;;;;;;;;;;5104010;27;20115;-67
2021/01/28 10:05:26;;;;;;;5.17;3.77;;;;;;;;;;5112508;27;20119;-67
2021/01/28 10:07:52;;;;;;;6.78;4.22;;;;;;;;;;5123310;27;20107;-67
2021/01/28 10:10:20;;;;;;;7.50;5.30;;;;;;;;;;5124421;27;20134;-67
2021/01/28 10:12:47;;;;;;;6.93;4.93;;;;;;;;;;5123821;27;20586;-67
2021/01/28 10:15:13;;;;;;;7.22;4.10;;;;;;;;;;5124678;27;20442;-67
2021/01/28 10:17:42;;;;;;;6.32;4.55;;;;;;;;;;5127392;27;20026;-67
2021/01/28 10:20:08;;;;;;;10.13;5.78;;;;;;;;;;5123275;27;20029;-67
2021/01/28 10:22:36;;;;;;;7.28;5.25;;;;;;;;;;5126762;27;20034;-67
2021/01/28 10:25:03;;;;;;;8.75;5.00;;;;;;;;;;5124619;27;20071;-67
2021/01/28 10:27:29;;;;;;;6.47;3.97;;;;;;;;;;5125881;27;20034;-66
2021/01/28 10:29:55;;;;;;;8.80;4.95;;;;;;;;;;5124992;27;20075;-68
2021/01/28 10:32:21;;;;;;;8.38;4.63;;;;;;;;;;5124121;27;20122;-69
2021/01/28 10:34:47;;;;;;;7.13;3.78;;;;;;;;;;5123771;27;20081;-67
2021/01/28 10:37:14;;;;;;;5.68;3.38;;;;;;;;;;5124456;27;20027;-67
2021/01/28 10:39:40;;;;;;;4.10;3.70;;;;;;;;;;5123109;27;20015;-66
2021/01/28 10:42:06;;;;;;;5.93;3.47;;;;;;;;;;5122971;27;20023;-66
2021/01/28 10:44:32;;;;;;;3.92;3.42;;;;;;;;;;5122787;27;20419;-66
2021/01/28 10:46:58;;;;;;;5.65;3.75;;;;;;;;;;5125242;27;20038;-66
2021/01/28 10:49:25;;;;;;;6.55;3.58;;;;;;;;;;5125140;27;20122;-67
2021/01/28 10:51:51;;;;;;;7.03;4.60;;;;;;;;;;5125500;27;20050;-67
2021/01/28 10:54:17;;;;;;;4.85;3.30;;;;;;;;;;5123179;27;20070;-67
2021/01/28 10:56:44;;;;;;;3.63;2.30;;;;;;;;;;5125713;27;20397;-67
2021/01/28 10:59:10;;;;;;;4.00;2.50;;;;;;;;;;5125089;27;20019;-66
2021/01/28 11:01:36;;;;;;;4.57;4.18;;;;;;;;;;5125479;27;20537;-68
2021/01/28 11:04:02;;;;;;;4.70;2.90;;;;;;;;;;5121338;27;20022;-68
2021/01/28 11:06:28;;;;;;;3.25;2.22;;;;;;;;;;5124572;27;20047;-66
2021/01/28 11:08:54;;;;;;;3.25;2.95;;;;;;;;;;5123132;27;20095;-67
2021/01/28 11:11:20;;;;;;;4.30;3.03;;;;;;;;;;5123168;27;20031;-67
2021/01/28 11:13:47;;;;;;;3.80;2.90;;;;;;;;;;5124640;27;20038;-67
2021/01/28 11:16:14;;;;;;;5.20;3.25;;;;;;;;;;5125457;27;20375;-67
2021/01/28 11:18:40;;;;;;;4.22;3.08;;;;;;;;;;5125822;27;20023;-67
2021/01/28 11:21:06;;;;;;;4.32;2.30;;;;;;;;;;5124156;27;20039;-72
2021/01/28 11:23:32;;;;;;;2.20;2.00;;;;;;;;;;5104894;27;20027;-67
2021/01/28 11:25:58;;;;;;;1.98;1.85;;;;;;;;;;5125830;27;20031;-67
2021/01/28 11:28:24;;;;;;;3.70;1.67;;;;;;;;;;5123933;27;21410;-67
2021/01/28 11:30:50;;;;;;;3.45;2.28;;;;;;;;;;5121235;27;20064;-67
2021/01/28 11:33:16;;;;;;;2.63;1.80;;;;;;;;;;5121009;27;20110;-67
2021/01/28 11:35:43;;;;;;;2.40;1.88;;;;;;;;;;5121641;27;20498;-67
2021/01/28 11:38:09;;;;;;;3.67;2.28;;;;;;;;;;5118314;27;20034;-68
2021/01/28 11:40:36;;;;;;;4.05;2.05;;;;;;;;;;5124687;27;20409;-67
2021/01/28 11:43:06;;;;;;;2.20;1.90;;;;;;;;;;5101893;27;20042;-68
2021/01/28 11:45:34;;;;;;;3.85;1.58;;;;;;;;;;5124909;27;20533;-67
2021/01/28 11:48:01;;;;;;;1.45;1.35;;;;;;;;;;5124295;27;20050;-67
2021/01/28 11:50:28;;;;;;;1.98;1.27;;;;;;;;;;5123595;27;20050;-67
2021/01/28 11:52:54;;;;;;;1.50;1.33;;;;;;;;;;5122707;27;20035;-67
2021/01/28 11:55:21;;;;;;;1.67;1.33;;;;;;;;;;5123965;27;20039;-67
2021/01/28 11:57:48;;;;;;;3.20;1.50;;;;;;;;;;5123653;27;20496;-67
2021/01/28 12:00:15;;;;;;;1.05;0.93;;;;;;;;;;5106926;27;20201;-67
2021/01/28 12:02:41;;;;;;;1.35;0.77;;;;;;;;;;5124569;27;20030;-67
2021/01/28 12:05:08;;;;;;;2.95;1.52;;;;;;;;;;5116546;27;20103;-67
2021/01/28 12:07:34;;;;;;;1.20;1.10;;;;;;;;;;5109036;28;20050;-67
2021/01/28 12:10:00;;;;;;;1.02;0.90;;;;;;;;;;5102590;28;20032;-67
2021/01/28 12:12:26;;;;;;;1.35;1.20;;;;;;;;;;5089775;28;20569;-67
2021/01/28 12:14:52;;;;;;;2.08;1.00;;;;;;;;;;5108058;28;20031;-67
2021/01/28 12:17:19;;;;;;;0.90;0.60;;;;;;;;;;5081660;28;20434;-67
2021/01/28 12:19:45;;;;;;;1.58;1.08;;;;;;;;;;5099610;28;20050;-67
2021/01/28 12:22:11;;;;;;;2.80;0.90;;;;;;;;;;5100186;28;20107;-67
2021/01/28 12:24:37;;;;;;;2.10;1.25;;;;;;;;;;5102502;28;20489;-68
2021/01/28 12:27:03;;;;;;;1.55;0.90;;;;;;;;;;5108397;28;20028;-67
2021/01/28 12:29:29;;;;;;;1.67;1.58;;;;;;;;;;5102033;28;20555;-66
2021/01/28 12:31:55;;;;;;;2.75;0.77;;;;;;;;;;5097893;28;20514;-67
2021/01/28 12:34:22;;;;;;;3.50;1.67;;;;;;;;;;5093418;28;20106;-67
2021/01/28 12:36:48;;;;;;;3.85;0.80;;;;;;;;;;5093656;28;20020;-68
2021/01/28 12:39:14;;;;;;;2.80;0.90;;;;;;;;;;5098666;28;20107;-68
2021/01/28 12:41:41;;;;;;;1.27;0.90;;;;;;;;;;5093173;28;20027;-67
2021/01/28 12:44:07;;;;;;;1.50;1.25;;;;;;;;;;5108051;28;20036;-67
2021/01/28 12:46:33;;;;;;;0.98;0.70;;;;;;;;;;5109052;28;20024;-67
2021/01/28 12:48:59;;;;;;;1.13;0.77;;;;;;;;;;5106937;28;20035;-67
2021/01/28 12:51:25;;;;;;;1.10;0.60;;;;;;;;;;5108049;28;20039;-67
2021/01/28 12:53:51;;;;;;;2.38;1.17;;;;;;;;;;5108731;28;20104;-67
2021/01/28 12:56:17;;;;;;;2.70;0.77;;;;;;;;;;5103581;28;20031;-67
2021/01/28 12:58:43;;;;;;;2.72;1.08;;;;;;;;;;5105746;28;20032;-67
2021/01/28 13:01:09;;;;;;;0.47;0.47;;;;;;;;;;5089398;28;20028;-67
2021/01/28 13:03:35;;;;;;;1.75;0.77;;;;;;;;;;5105733;28;20058;-67
2021/01/28 13:06:01;;;;;;;0.70;0.60;;;;;;;;;;5117019;27;20039;-67
2021/01/28 13:08:28;;;;;;;2.90;0.88;;;;;;;;;;5126687;27;20023;-67
2021/01/28 13:10:54;;;;;;;3.60;0.73;;;;;;;;;;5127659;28;20039;-67
2021/01/28 13:13:20;;;;;;;1.65;0.70;;;;;;;;;;5126250;28;20031;-67
2021/01/28 13:15:46;;;;;;;3.33;1.15;;;;;;;;;;5125974;28;20047;-67
2021/01/28 13:18:13;;;;;;;1.63;0.45;;;;;;;;;;5127494;28;20552;-67
2021/01/28 13:20:39;;;;;;;3.88;1.17;;;;;;;;;;5131180;27;20033;-67
2021/01/28 13:23:05;;;;;;;1.42;0.90;;;;;;;;;;5131782;27;20050;-67
2021/01/28 13:25:31;;;;;;;0.60;0.60;;;;;;;;;;5131295;27;20019;-67
2021/01/28 13:27:57;;;;;;;3.20;0.50;;;;;;;;;;5131875;27;20110;-68
2021/01/28 13:30:24;;;;;;;2.50;0.77;;;;;;;;;;5130960;27;20528;-66
2021/01/28 13:32:51;;;;;;;0.73;0.70;;;;;;;;;;5125420;27;20614;-67
2021/01/28 13:35:20;;;;;;;1.23;0.52;;;;;;;;;;5114852;27;20035;-66
2021/01/28 13:37:47;;;;;;;2.20;1.38;;;;;;;;;;5119903;27;20043;-66
2021/01/28 13:40:15;;;;;;;0.60;0.60;;;;;;;;;;5111943;27;20556;-67
2021/01/28 13:42:41;;;;;;;2.83;0.60;;;;;;;;;;5120591;27;20035;-67
2021/01/28 13:45:08;;;;;;;2.75;0.98;;;;;;;;;;5121097;27;20035;-67
2021/01/28 13:47:34;;;;;;;1.98;0.82;;;;;;;;;;5111872;27;20511;-66
2021/01/28 13:50:01;;;;;;;2.17;0.75;;;;;;;;;;5117931;27;20401;-67
2021/01/28 13:52:27;;;;;;;0.73;0.68;;;;;;;;;;5110533;27;20063;-66
2021/01/28 13:54:53;;;;;;;1.92;1.17;;;;;;;;;;5110812;27;20110;-67
2021/01/28 13:57:19;;;;;;;1.52;0.88;;;;;;;;;;5122166;27;20046;-66
2021/01/28 13:59:45;;;;;;;6.32;0.95;;;;;;;;;;5113842;27;20058;-69
2021/01/28 14:02:11;;;;;;;0.90;0.85;;;;;;;;;;5119676;27;20039;-66
2021/01/28 14:04:38;;;;;;;0.50;0.50;;;;;;;;;;5123790;27;20078;-67
2021/01/28 14:07:04;;;;;;;2.40;0.75;;;;;;;;;;5118567;27;20538;-68
2021/01/28 14:09:30;;;;;;;0.52;0.50;;;;;;;;;;5114014;27;20074;-67
2021/01/28 14:11:56;;;;;;;0.95;0.85;;;;;;;;;;5120814;27;21929;-67
2021/01/28 14:14:23;;;;;;;3.25;0.50;;;;;;;;;;5116486;27;20031;-67
2021/01/28 14:16:49;;;;;;;0.82;0.82;;;;;;;;;;5121262;27;20520;-68
2021/01/28 14:19:15;;;;;;;0.75;0.70;;;;;;;;;;5118516;27;20090;-67
2021/01/28 14:21:43;;;;;;;0.63;0.30;;;;;;;;;;5115123;27;20126;-67
2021/01/28 14:24:09;;;;;;;0.52;0.50;;;;;;;;;;5123087;27;20435;-67
2021/01/28 14:26:35;;;;;;;3.88;0.80;;;;;;;;;;5118691;27;20082;-67
2021/01/28 14:29:01;;;;;;;1.75;0.95;;;;;;;;;;5117916;27;20054;-67
2021/01/28 14:31:27;;;;;;;2.83;0.70;;;;;;;;;;5118094;27;20558;-67
2021/01/28 14:33:53;;;;;;;1.13;1.13;;;;;;;;;;5114297;27;20292;-67
2021/01/28 14:36:20;;;;;;;0.70;0.70;;;;;;;;;;5120650;27;20104;-67
2021/01/28 14:38:46;;;;;;;1.05;0.95;;;;;;;;;;5126210;27;20111;-66
2021/01/28 14:41:12;;;;;;;2.95;1.05;;;;;;;;;;5117214;27;20043;-67
2021/01/28 14:43:38;;;;;;;2.42;0.73;;;;;;;;;;5108492;27;20059;-66
2021/01/28 14:46:04;;;;;;;2.45;1.00;;;;;;;;;;5109248;27;20032;-67
2021/01/28 14:48:32;;;;;;;2.92;1.23;;;;;;;;;;5112067;27;20481;-67
2021/01/28 14:50:58;;;;;;;2.20;1.40;;;;;;;;;;5115172;27;20126;-67
2021/01/28 14:53:24;;;;;;;1.42;1.00;;;;;;;;;;5115871;27;20031;-67